Time,TemperatureF,DewpointF,PressureIn,WindDirection,WindDirectionDegrees,WindSpeedMPH,WindSpeedGustMPH,Humidity,HourlyPrecipIn,Conditions,Clouds,dailyrainin,SolarRadiationWatts/m^2,SoftwareType,DateUTC
2013-06-25 00:02:00,69.6,66.5,29.87,South,180,0.0,0.0,90,0.00,BKN,,0.00,0.0,WeatherDisplay:10.37,2013-06-25 05:02:00,
2013-06-25 00:07:00,69.6,66.2,29.87,South,180,0.0,0.0,89,0.00,BKN,,0.00,0.0,WeatherDisplay:10.37,2013-06-25 05:07:00,
2013-06-25 00:12:00,69.6,66.2,29.87,South,180,0.0,1.2,89,0.00,BKN,,0.00,0.0,WeatherDisplay:10.37,2013-06-25 05:12:00,
2013-06-25 00:17:00,69.6,66.2,29.87,South,180,0.1,0.0,89,0.00,BKN,,0.00,0.0,WeatherDisplay:10.37,2013-06-25 05:17:00,
2013-06-25 00:22:00,69.4,66.3,29.87,South,180,1.5,4.8,90,0.00,-RA,,0.00,0.0,WeatherDisplay:10.37,2013-06-25 05:22:00,
2013-06-25 00:27:00,69.3,66.2,29.87,South,180,0.0,0.0,90,0.02,-RA,,0.02,0.0,WeatherDisplay:10.37,2013-06-25 05:27:00,
2013-06-25 00:32:00,68.9,66.2,29.87,South,180,0.0,1.2,91,0.05,-RA,,0.05,0.0,WeatherDisplay:10.37,2013-06-25 05:32:00,
2013-06-25 00:37:00,68.6,65.9,29.87,SSE,167,0.0,4.6,91,0.05,-RA,,0.05,0.0,WeatherDisplay:10.37,2013-06-25 05:37:00,
2013-06-25 00:42:00,68.3,65.6,29.87,SSE,167,0.8,4.6,91,0.07,-RA,,0.07,0.0,WeatherDisplay:10.37,2013-06-25 05:42:00,
2013-06-25 00:47:00,68.1,65.7,29.85,SSE,167,0.0,0.0,92,0.08,-RA,,0.08,0.0,WeatherDisplay:10.37,2013-06-25 05:47:00,
2013-06-25 00:52:00,68.1,66.0,29.85,SSE,167,0.0,0.0,93,0.09,-RA,,0.09,0.0,WeatherDisplay:10.37,2013-06-25 05:52:00,
2013-06-25 00:57:00,67.9,65.8,29.85,SSE,168,1.5,4.6,93,0.09,-RA,,0.09,0.0,WeatherDisplay:10.37,2013-06-25 05:57:00,
2013-06-25 01:02:00,67.8,65.7,29.86,South,184,0.0,1.2,93,0.09,-RA,,0.09,0.0,WeatherDisplay:10.37,2013-06-25 06:02:00,
2013-06-25 01:07:00,67.6,65.5,29.86,South,184,0.0,0.0,93,0.09,-RA,,0.09,0.0,WeatherDisplay:10.37,2013-06-25 06:07:00,
2013-06-25 01:12:00,67.6,65.8,29.86,South,184,0.0,0.0,94,0.12,-RA,,0.12,0.0,WeatherDisplay:10.37,2013-06-25 06:12:00,
2013-06-25 01:17:00,67.4,65.6,29.83,South,184,0.0,0.0,94,0.12,-RA,,0.12,0.0,WeatherDisplay:10.37,2013-06-25 06:17:00,
2013-06-25 01:22:00,67.3,65.5,29.83,South,184,0.0,1.2,94,0.12,-RA,,0.12,0.0,WeatherDisplay:10.37,2013-06-25 06:22:00,
2013-06-25 01:27:00,67.3,65.5,29.83,South,183,0.0,0.0,94,0.12,-RA,,0.14,0.0,WeatherDisplay:10.37,2013-06-25 06:27:00,
2013-06-25 01:32:00,67.3,65.8,29.84,South,183,0.1,1.2,95,0.12,-RA,,0.14,0.0,WeatherDisplay:10.37,2013-06-25 06:32:00,
2013-06-25 01:37:00,67.3,65.8,29.84,South,183,0.4,1.2,95,0.09,-RA,,0.14,0.0,WeatherDisplay:10.37,2013-06-25 06:37:00,
2013-06-25 01:42:00,67.3,65.8,29.84,South,183,0.0,1.2,95,0.07,BKN,,0.14,0.0,WeatherDisplay:10.37,2013-06-25 06:42:00,
2013-06-25 01:47:00,67.3,65.8,29.89,South,183,0.0,0.0,95,0.06,BKN,,0.14,0.0,WeatherDisplay:10.37,2013-06-25 06:47:00,
2013-06-25 01:52:00,67.1,65.6,29.89,South,183,0.0,0.0,95,0.05,BKN,,0.14,0.0,WeatherDisplay:10.37,2013-06-25 06:52:00,
2013-06-25 01:57:00,66.9,65.4,29.89,South,183,0.0,0.0,95,0.07,RA,,0.16,0.0,WeatherDisplay:10.37,2013-06-25 06:57:00,
2013-06-25 02:02:00,66.9,65.7,29.86,South,183,0.0,0.0,96,0.07,RA,,0.16,0.0,WeatherDisplay:10.37,2013-06-25 07:02:00,
2013-06-25 02:07:00,66.9,65.7,29.86,South,183,0.0,0.0,96,0.09,RA,,0.19,0.0,WeatherDisplay:10.37,2013-06-25 07:07:00,
2013-06-25 02:12:00,66.9,65.7,29.86,South,183,0.0,0.0,96,0.07,RA,,0.19,0.0,WeatherDisplay:10.37,2013-06-25 07:12:00,
2013-06-25 02:17:00,66.9,65.7,29.86,South,183,0.0,0.0,96,0.09,RA,,0.21,0.0,WeatherDisplay:10.37,2013-06-25 07:17:00,
2013-06-25 02:22:00,66.8,65.6,29.86,South,183,0.0,0.0,96,0.12,RA,,0.23,0.0,WeatherDisplay:10.37,2013-06-25 07:22:00,
2013-06-25 02:27:00,66.8,65.6,29.86,South,183,0.0,0.0,96,0.12,RA,,0.26,0.0,WeatherDisplay:10.37,2013-06-25 07:27:00,
2013-06-25 02:32:00,66.8,65.6,29.86,South,183,0.0,0.0,96,0.12,RA,,0.26,0.0,WeatherDisplay:10.37,2013-06-25 07:32:00,
2013-06-25 02:37:00,66.8,65.6,29.86,South,183,0.0,0.0,96,0.14,RA,,0.28,0.0,WeatherDisplay:10.37,2013-06-25 07:37:00,
2013-06-25 02:42:00,66.8,65.9,29.86,South,183,0.0,0.0,97,0.14,-RA,,0.28,0.0,WeatherDisplay:10.37,2013-06-25 07:42:00,
2013-06-25 02:47:00,66.8,65.9,29.86,South,183,0.0,0.0,97,0.16,-RA,,0.30,0.0,WeatherDisplay:10.37,2013-06-25 07:47:00,
2013-06-25 02:52:00,66.8,65.9,29.86,South,183,0.0,0.0,97,0.19,-RA,,0.32,0.0,WeatherDisplay:10.37,2013-06-25 07:52:00,
2013-06-25 02:57:00,66.9,66.0,29.86,South,183,0.0,0.0,97,0.17,-RA,,0.35,0.0,WeatherDisplay:10.37,2013-06-25 07:57:00,
2013-06-25 03:02:00,66.9,66.0,29.88,South,183,0.0,0.0,97,0.21,-RA,,0.37,0.0,WeatherDisplay:10.37,2013-06-25 08:02:00,
2013-06-25 03:07:00,66.8,65.9,29.88,South,183,0.0,0.0,97,0.20,-RA,,0.38,0.0,WeatherDisplay:10.37,2013-06-25 08:07:00,
2013-06-25 03:12:00,66.6,65.7,29.88,South,183,0.0,0.0,97,0.21,RA,,0.39,0.0,WeatherDisplay:10.37,2013-06-25 08:12:00,
2013-06-25 03:17:00,66.8,65.9,29.85,South,183,0.0,1.2,97,0.20,RA,,0.41,0.0,WeatherDisplay:10.37,2013-06-25 08:17:00,
2013-06-25 03:22:00,66.8,65.9,29.85,South,183,0.6,2.3,97,0.19,-RA,,0.42,0.0,WeatherDisplay:10.37,2013-06-25 08:22:00,
2013-06-25 03:27:00,66.6,65.7,29.85,South,183,0.0,0.0,97,0.16,-RA,,0.42,0.0,WeatherDisplay:10.37,2013-06-25 08:27:00,
2013-06-25 03:32:00,66.6,65.7,29.86,South,183,0.0,0.0,97,0.17,-RA,,0.44,0.0,WeatherDisplay:10.37,2013-06-25 08:32:00,
2013-06-25 03:37:00,66.4,65.5,29.86,South,183,0.0,0.0,97,0.16,-RA,,0.44,0.0,WeatherDisplay:10.37,2013-06-25 08:37:00,
2013-06-25 03:42:00,66.6,65.7,29.86,South,183,0.1,1.2,97,0.16,BKN,,0.44,0.0,WeatherDisplay:10.37,2013-06-25 08:42:00,
2013-06-25 03:47:00,66.3,65.4,29.84,South,183,0.9,3.6,97,0.16,RA,,0.46,0.0,WeatherDisplay:10.37,2013-06-25 08:47:00,
2013-06-25 03:52:00,66.3,65.7,29.84,South,178,1.2,4.6,98,0.14,RA,,0.46,0.0,WeatherDisplay:10.37,2013-06-25 08:52:00,
2013-06-25 03:57:00,66.3,65.7,29.84,South,178,2.0,5.8,98,0.13,BKN,,0.46,0.0,WeatherDisplay:10.37,2013-06-25 08:57:00,
2013-06-25 04:02:00,66.1,65.5,29.85,South,182,3.2,5.8,98,0.10,RA,,0.48,0.0,WeatherDisplay:10.37,2013-06-25 09:02:00,
2013-06-25 04:07:00,66.1,65.5,29.85,South,182,0.0,0.0,98,0.09,RA,,0.48,0.0,WeatherDisplay:10.37,2013-06-25 09:07:00,
2013-06-25 04:12:00,66.1,65.5,29.85,South,182,0.0,0.0,98,0.08,BKN,,0.48,0.0,WeatherDisplay:10.37,2013-06-25 09:12:00,
2013-06-25 04:17:00,66.1,65.5,29.84,South,182,0.1,2.3,98,0.08,RA,,0.49,0.0,WeatherDisplay:10.37,2013-06-25 09:17:00,
2013-06-25 04:22:00,66.1,65.5,29.84,South,182,0.1,1.2,98,0.07,RA,,0.49,0.0,WeatherDisplay:10.37,2013-06-25 09:22:00,
2013-06-25 04:27:00,66.0,65.4,29.84,South,182,0.0,0.0,98,0.08,RA,,0.50,0.0,WeatherDisplay:10.37,2013-06-25 09:27:00,
2013-06-25 04:32:00,65.8,65.2,29.85,South,180,0.0,0.0,98,0.07,RA,,0.51,0.0,WeatherDisplay:10.37,2013-06-25 09:32:00,
2013-06-25 04:37:00,65.8,65.2,29.85,South,180,0.0,0.0,98,0.07,RA,,0.51,0.0,WeatherDisplay:10.37,2013-06-25 09:37:00,
2013-06-25 04:42:00,65.8,65.2,29.85,South,180,0.0,0.0,98,0.07,-RA,,0.51,0.0,WeatherDisplay:10.37,2013-06-25 09:42:00,
2013-06-25 04:47:00,65.8,65.2,29.86,South,180,0.0,0.0,98,0.05,-RA,,0.51,0.0,WeatherDisplay:10.37,2013-06-25 09:47:00,
2013-06-25 04:52:00,65.8,65.2,29.86,South,180,0.0,0.0,98,0.05,-RA,,0.51,0.0,WeatherDisplay:10.37,2013-06-25 09:52:00,
2013-06-25 04:57:00,65.8,65.2,29.86,South,180,0.0,0.0,98,0.05,-RA,,0.51,0.0,WeatherDisplay:10.37,2013-06-25 09:57:00,
2013-06-25 05:02:00,65.8,65.2,29.84,South,180,0.0,0.0,98,0.03,BKN,,0.51,0.0,WeatherDisplay:10.37,2013-06-25 10:02:00,
2013-06-25 05:07:00,65.8,65.2,29.84,South,180,0.0,0.0,98,0.03,BKN,,0.51,0.0,WeatherDisplay:10.37,2013-06-25 10:07:00,
2013-06-25 05:12:00,65.8,65.2,29.84,South,180,0.0,0.0,98,0.03,BKN,,0.51,0.0,WeatherDisplay:10.37,2013-06-25 10:12:00,
2013-06-25 05:17:00,65.8,65.2,29.84,South,180,0.0,0.0,98,0.02,BKN,,0.51,0.0,WeatherDisplay:10.37,2013-06-25 10:17:00,
2013-06-25 05:22:00,65.6,65.0,29.84,South,180,0.0,0.0,98,0.02,BKN,,0.51,0.0,WeatherDisplay:10.37,2013-06-25 10:22:00,
2013-06-25 05:27:00,65.6,65.0,29.84,South,180,0.0,0.0,98,0.01,BKN,,0.51,0.0,WeatherDisplay:10.37,2013-06-25 10:27:00,
2013-06-25 05:32:00,65.6,65.0,29.83,South,180,0.0,0.0,98,0.00,BKN,,0.51,0.0,WeatherDisplay:10.37,2013-06-25 10:32:00,
2013-06-25 05:37:00,65.6,65.0,29.83,South,180,0.0,0.0,98,0.00,BKN,,0.51,0.0,WeatherDisplay:10.37,2013-06-25 10:37:00,
2013-06-25 05:42:00,65.6,65.0,29.83,South,180,0.0,0.0,98,0.00,BKN,,0.51,5.0,WeatherDisplay:10.37,2013-06-25 10:42:00,
2013-06-25 05:47:00,65.6,65.0,29.83,South,180,0.2,2.4,98,0.00,BKN,,0.51,7.0,WeatherDisplay:10.37,2013-06-25 10:47:00,
2013-06-25 05:52:00,65.6,65.0,29.83,South,180,0.0,1.2,98,0.00,BKN,,0.51,7.0,WeatherDisplay:10.37,2013-06-25 10:52:00,
2013-06-25 05:57:00,65.6,65.3,29.83,South,180,0.0,0.0,99,0.00,BKN,,0.51,7.0,WeatherDisplay:10.37,2013-06-25 10:57:00,
2013-06-25 06:02:00,65.6,65.3,29.83,South,180,0.0,0.0,99,0.00,BKN,,0.51,0.0,WeatherDisplay:10.37,2013-06-25 11:02:00,
2013-06-25 06:07:00,65.6,65.3,29.83,South,180,0.0,0.0,99,0.00,BKN,,0.51,0.0,WeatherDisplay:10.37,2013-06-25 11:07:00,
2013-06-25 06:12:00,65.8,65.5,29.83,South,180,0.0,0.0,99,0.00,BKN,,0.51,5.0,WeatherDisplay:10.37,2013-06-25 11:12:00,
2013-06-25 06:17:00,65.8,65.5,29.81,South,180,0.0,0.0,99,0.00,BKN,,0.51,9.0,WeatherDisplay:10.37,2013-06-25 11:17:00,
2013-06-25 06:22:00,65.8,65.5,29.81,South,180,0.0,0.0,99,0.00,BKN,,0.51,11.0,WeatherDisplay:10.37,2013-06-25 11:22:00,
2013-06-25 06:27:00,65.8,65.5,29.81,South,180,0.0,0.0,99,0.00,BKN,,0.51,37.0,WeatherDisplay:10.37,2013-06-25 11:27:00,
2013-06-25 06:32:00,65.8,65.5,29.82,South,180,0.0,0.0,99,0.00,BKN,,0.51,54.0,WeatherDisplay:10.37,2013-06-25 11:32:00,
2013-06-25 06:37:00,65.8,65.5,29.82,South,180,0.0,0.0,99,0.00,BKN,,0.51,72.0,WeatherDisplay:10.37,2013-06-25 11:37:00,
2013-06-25 06:42:00,65.8,65.5,29.82,South,180,0.0,0.0,99,0.01,RA,,0.52,100.0,WeatherDisplay:10.37,2013-06-25 11:42:00,
2013-06-25 06:47:00,66.1,65.8,29.85,South,180,0.0,0.0,99,0.01,RA,,0.52,72.0,WeatherDisplay:10.37,2013-06-25 11:47:00,
2013-06-25 06:52:00,66.3,66.0,29.85,South,180,0.0,0.0,99,0.01,BKN,,0.52,53.0,WeatherDisplay:10.37,2013-06-25 11:52:00,
2013-06-25 06:57:00,66.4,66.1,29.85,South,180,0.0,0.0,99,0.01,BKN,,0.52,88.0,WeatherDisplay:10.37,2013-06-25 11:57:00,
2013-06-25 07:02:00,66.4,66.1,29.86,South,180,0.0,0.0,99,0.01,BKN,,0.52,95.0,WeatherDisplay:10.37,2013-06-25 12:02:00,
2013-06-25 07:03:00,66.4,66.1,29.86,South,180,0.0,0.0,99,0.01,BKN,,0.52,111.0,WeatherDisplay:10.37,2013-06-25 12:03:00,
2013-06-25 07:08:00,66.1,65.8,29.86,South,180,0.0,0.0,99,0.01,BKN,,0.52,77.0,WeatherDisplay:10.37,2013-06-25 12:08:00,
2013-06-25 07:13:00,66.1,65.8,29.86,South,180,0.1,1.2,99,0.01,BKN,,0.52,69.0,WeatherDisplay:10.37,2013-06-25 12:13:00,
2013-06-25 07:18:00,66.1,65.8,29.85,South,180,0.0,0.0,99,0.01,BKN,,0.52,79.0,WeatherDisplay:10.37,2013-06-25 12:18:00,
2013-06-25 07:23:00,66.3,66.0,29.85,South,180,0.0,1.2,99,0.01,BKN,,0.52,91.0,WeatherDisplay:10.37,2013-06-25 12:23:00,
2013-06-25 07:28:00,66.1,65.8,29.85,South,180,0.0,1.2,99,0.01,BKN,,0.52,84.0,WeatherDisplay:10.37,2013-06-25 12:28:00,
2013-06-25 07:33:00,66.1,65.8,29.85,South,180,0.0,0.0,99,0.01,BKN,,0.52,76.0,WeatherDisplay:10.37,2013-06-25 12:33:00,
2013-06-25 07:38:00,66.3,66.0,29.85,South,180,0.0,1.2,99,0.00,BKN,,0.52,63.0,WeatherDisplay:10.37,2013-06-25 12:38:00,
2013-06-25 07:43:00,66.3,66.0,29.85,South,180,0.0,0.0,99,0.00,BKN,,0.52,65.0,WeatherDisplay:10.37,2013-06-25 12:43:00,
2013-06-25 07:48:00,66.1,65.5,29.86,South,180,0.0,0.0,98,0.00,BKN,,0.52,51.0,WeatherDisplay:10.37,2013-06-25 12:48:00,
2013-06-25 07:53:00,66.3,66.0,29.86,South,180,0.0,0.0,99,0.00,BKN,,0.52,47.0,WeatherDisplay:10.37,2013-06-25 12:53:00,
2013-06-25 07:58:00,66.4,65.8,29.86,South,180,0.1,2.3,98,0.00,BKN,,0.52,58.0,WeatherDisplay:10.37,2013-06-25 12:58:00,
2013-06-25 08:03:00,66.4,65.8,29.86,South,180,0.1,1.2,98,0.00,BKN,,0.52,58.0,WeatherDisplay:10.37,2013-06-25 13:03:00,
2013-06-25 08:08:00,66.3,65.7,29.86,South,180,0.0,2.3,98,0.00,BKN,,0.52,54.0,WeatherDisplay:10.37,2013-06-25 13:08:00,
2013-06-25 08:13:00,66.3,65.7,29.86,South,180,0.0,0.0,98,0.00,BKN,,0.52,54.0,WeatherDisplay:10.37,2013-06-25 13:13:00,
2013-06-25 08:18:00,66.3,65.7,29.88,South,180,0.6,2.3,98,0.00,BKN,,0.52,40.0,WeatherDisplay:10.37,2013-06-25 13:18:00,
2013-06-25 08:23:00,66.3,65.7,29.88,South,180,0.0,0.0,98,0.00,OVC,,0.52,30.0,WeatherDisplay:10.37,2013-06-25 13:23:00,
2013-06-25 08:28:00,66.4,65.8,29.88,South,180,0.0,0.0,98,0.00,OVC,,0.52,23.0,WeatherDisplay:10.37,2013-06-25 13:28:00,
2013-06-25 08:33:00,66.4,65.8,29.88,South,180,0.0,1.2,98,0.00,OVC,,0.52,23.0,WeatherDisplay:10.37,2013-06-25 13:33:00,
2013-06-25 08:38:00,66.4,65.8,29.88,South,180,0.0,0.0,98,0.00,OVC,,0.52,42.0,WeatherDisplay:10.37,2013-06-25 13:38:00,
2013-06-25 08:43:00,66.4,65.8,29.88,South,180,0.0,0.0,98,0.00,OVC,,0.52,56.0,WeatherDisplay:10.37,2013-06-25 13:43:00,
2013-06-25 08:48:00,66.4,65.8,29.88,South,180,0.0,0.0,98,0.00,BKN,,0.52,60.0,WeatherDisplay:10.37,2013-06-25 13:48:00,
2013-06-25 08:53:00,66.6,66.0,29.88,South,180,0.0,0.0,98,0.00,BKN,,0.52,91.0,WeatherDisplay:10.37,2013-06-25 13:53:00,
2013-06-25 08:58:00,66.8,66.2,29.88,South,180,0.0,0.0,98,0.00,BKN,,0.52,116.0,WeatherDisplay:10.37,2013-06-25 13:58:00,
2013-06-25 09:03:00,66.9,66.3,29.86,South,180,0.0,0.0,98,0.00,BKN,,0.52,63.0,WeatherDisplay:10.37,2013-06-25 14:03:00,
2013-06-25 09:08:00,66.8,65.9,29.86,South,180,0.0,0.0,97,0.00,BKN,,0.52,102.0,WeatherDisplay:10.37,2013-06-25 14:08:00,
2013-06-25 09:13:00,66.8,66.2,29.86,South,180,0.0,0.0,98,0.00,BKN,,0.52,200.0,WeatherDisplay:10.37,2013-06-25 14:13:00,
2013-06-25 09:18:00,66.9,66.3,29.84,South,180,0.1,0.0,98,0.00,BKN,,0.52,221.0,WeatherDisplay:10.37,2013-06-25 14:18:00,
2013-06-25 09:23:00,67.3,66.7,29.84,South,176,1.3,4.8,98,0.00,BKN,,0.52,274.0,WeatherDisplay:10.37,2013-06-25 14:23:00,
2013-06-25 09:28:00,67.3,66.7,29.84,East,98,1.4,2.3,98,0.00,BKN,,0.52,248.0,WeatherDisplay:10.37,2013-06-25 14:28:00,
2013-06-25 09:33:00,67.4,66.8,29.83,East,98,0.0,2.4,98,0.00,BKN,,0.52,223.0,WeatherDisplay:10.37,2013-06-25 14:33:00,
2013-06-25 09:38:00,67.1,66.2,29.83,East,91,0.0,5.8,97,0.00,BKN,,0.52,214.0,WeatherDisplay:10.37,2013-06-25 14:38:00,
2013-06-25 09:43:00,67.3,66.4,29.83,East,97,2.0,5.8,97,0.00,BKN,,0.52,216.0,WeatherDisplay:10.37,2013-06-25 14:43:00,
2013-06-25 09:48:00,67.1,66.2,29.81,East,83,0.5,6.9,97,0.00,BKN,,0.52,221.0,WeatherDisplay:10.37,2013-06-25 14:48:00,
2013-06-25 09:53:00,67.4,66.8,29.81,NE,50,0.8,3.5,98,0.00,BKN,,0.52,221.0,WeatherDisplay:10.37,2013-06-25 14:53:00,
2013-06-25 09:58:00,67.4,66.5,29.81,ENE,72,0.0,4.6,97,0.00,BKN,,0.52,236.0,WeatherDisplay:10.37,2013-06-25 14:58:00,
2013-06-25 10:03:00,67.4,66.5,29.78,ENE,78,0.0,0.0,97,0.00,BKN,,0.52,267.0,WeatherDisplay:10.37,2013-06-25 15:03:00,
2013-06-25 10:08:00,67.8,66.9,29.78,NE,50,0.0,0.0,97,0.00,BKN,,0.52,308.0,WeatherDisplay:10.37,2013-06-25 15:08:00,
2013-06-25 10:13:00,67.9,67.0,29.78,ENE,64,0.0,3.5,97,0.00,BKN,,0.52,360.0,WeatherDisplay:10.37,2013-06-25 15:13:00,
2013-06-25 10:18:00,68.3,67.4,29.77,ESE,107,1.0,7.2,97,0.00,BKN,,0.52,455.0,WeatherDisplay:10.37,2013-06-25 15:18:00,
2013-06-25 10:23:00,68.6,67.7,29.77,NE,50,0.0,0.0,97,0.00,BKN,,0.52,417.0,WeatherDisplay:10.37,2013-06-25 15:23:00,
2013-06-25 10:28:00,68.4,67.2,29.77,South,182,1.1,5.8,96,0.00,BKN,,0.52,371.0,WeatherDisplay:10.37,2013-06-25 15:28:00,
2013-06-25 10:33:00,68.8,67.3,29.83,South,175,0.6,8.1,95,0.00,BKN,,0.52,137.0,WeatherDisplay:10.37,2013-06-25 15:33:00,
2013-06-25 10:38:00,68.6,66.8,29.83,SSE,165,6.5,10.8,94,0.00,BKN,,0.52,123.0,WeatherDisplay:10.37,2013-06-25 15:38:00,
2013-06-25 10:43:00,68.6,66.8,29.83,SSW,193,0.0,1.2,94,0.00,BKN,,0.52,146.0,WeatherDisplay:10.37,2013-06-25 15:43:00,
2013-06-25 10:48:00,68.6,66.8,29.85,South,176,0.0,0.0,94,0.00,BKN,,0.52,211.0,WeatherDisplay:10.37,2013-06-25 15:48:00,
2013-06-25 10:53:00,68.8,66.7,29.85,South,181,0.0,5.8,93,0.00,BKN,,0.52,193.0,WeatherDisplay:10.37,2013-06-25 15:53:00,
2013-06-25 10:58:00,68.9,66.8,29.85,South,185,0.0,1.2,93,0.00,BKN,,0.52,276.0,WeatherDisplay:10.37,2013-06-25 15:58:00,
2013-06-25 11:03:00,69.3,67.2,29.85,South,185,0.1,0.0,93,0.00,BKN,,0.52,452.0,WeatherDisplay:10.37,2013-06-25 16:03:00,
2013-06-25 11:08:00,69.9,66.8,29.85,South,185,0.1,3.5,90,0.00,SCT,,0.52,691.0,WeatherDisplay:10.37,2013-06-25 16:08:00,
2013-06-25 11:13:00,70.3,66.9,29.85,South,185,0.1,1.2,89,0.00,BKN,,0.52,302.0,WeatherDisplay:10.37,2013-06-25 16:13:00,
2013-06-25 11:18:00,70.4,66.7,29.85,South,182,0.0,4.6,88,0.00,BKN,,0.52,262.0,WeatherDisplay:10.37,2013-06-25 16:18:00,
2013-06-25 11:23:00,70.6,67.2,29.85,South,182,0.0,0.0,89,0.01,RA,,0.53,543.0,WeatherDisplay:10.37,2013-06-25 16:23:00,
2013-06-25 11:28:00,70.6,66.5,29.85,South,182,2.1,5.8,87,0.01,RA,,0.53,431.0,WeatherDisplay:10.37,2013-06-25 16:28:00,
2013-06-25 11:33:00,70.9,66.8,29.84,South,182,0.0,1.2,87,0.01,BKN,,0.53,615.0,WeatherDisplay:10.37,2013-06-25 16:33:00,
2013-06-25 11:38:00,71.3,67.2,29.84,South,178,3.0,6.9,87,0.01,SCT,,0.53,504.0,WeatherDisplay:10.37,2013-06-25 16:38:00,
2013-06-25 11:43:00,71.5,67.4,29.84,South,190,2.1,4.8,87,0.01,BKN,,0.53,605.0,WeatherDisplay:10.37,2013-06-25 16:43:00,
2013-06-25 11:48:00,71.5,67.1,29.85,South,175,0.7,5.8,86,0.01,BKN,,0.53,381.0,WeatherDisplay:10.37,2013-06-25 16:48:00,
2013-06-25 11:53:00,71.8,67.0,29.85,South,181,0.0,3.5,85,0.01,BKN,,0.53,387.0,WeatherDisplay:10.37,2013-06-25 16:53:00,
2013-06-25 11:58:00,72.1,67.0,29.85,South,191,2.4,5.8,84,0.01,SCT,,0.53,513.0,WeatherDisplay:10.37,2013-06-25 16:58:00,
2013-06-25 12:03:00,72.3,66.8,29.84,SSW,192,0.0,3.5,83,0.01,SCT,,0.53,719.0,WeatherDisplay:10.37,2013-06-25 17:03:00,
2013-06-25 12:08:00,72.7,67.2,29.84,SSW,194,0.1,1.2,83,0.01,SCT,,0.53,438.0,WeatherDisplay:10.37,2013-06-25 17:08:00,
2013-06-25 12:13:00,72.3,66.8,29.84,SSW,209,0.0,1.2,83,0.01,BKN,,0.53,461.0,WeatherDisplay:10.37,2013-06-25 17:13:00,
2013-06-25 12:18:00,73.0,67.2,29.84,SSW,207,0.0,1.2,82,0.01,BKN,,0.53,374.0,WeatherDisplay:10.37,2013-06-25 17:18:00,
2013-06-25 12:23:00,73.0,66.8,29.84,South,180,0.3,4.6,81,0.00,BKN,,0.53,225.0,WeatherDisplay:10.37,2013-06-25 17:23:00,
2013-06-25 12:28:00,72.7,67.2,29.84,SSW,193,0.6,5.8,83,0.00,BKN,,0.53,225.0,WeatherDisplay:10.37,2013-06-25 17:28:00,
2013-06-25 12:33:00,72.5,67.4,29.85,South,190,1.2,4.6,84,0.00,BKN,,0.53,264.0,WeatherDisplay:10.37,2013-06-25 17:33:00,
2013-06-25 12:38:00,72.5,67.4,29.85,South,187,0.0,0.0,84,0.00,BKN,,0.53,271.0,WeatherDisplay:10.37,2013-06-25 17:38:00,
2013-06-25 12:43:00,72.8,67.7,29.85,South,187,0.0,0.0,84,0.00,BKN,,0.53,315.0,WeatherDisplay:10.37,2013-06-25 17:43:00,
2013-06-25 12:48:00,72.8,67.3,29.84,South,187,0.0,0.0,83,0.00,BKN,,0.53,197.0,WeatherDisplay:10.37,2013-06-25 17:48:00,
2013-06-25 12:53:00,73.2,68.1,29.84,South,187,0.0,0.0,84,0.00,BKN,,0.53,207.0,WeatherDisplay:10.37,2013-06-25 17:53:00,
2013-06-25 12:58:00,73.2,67.7,29.84,South,187,0.0,1.2,83,0.00,BKN,,0.53,272.0,WeatherDisplay:10.37,2013-06-25 17:58:00,
2013-06-25 13:03:00,73.2,67.7,29.85,South,187,0.0,0.0,83,0.00,BKN,,0.53,297.0,WeatherDisplay:10.37,2013-06-25 18:03:00,
2013-06-25 13:08:00,73.5,67.7,29.85,South,190,0.3,8.1,82,0.00,BKN,,0.53,360.0,WeatherDisplay:10.37,2013-06-25 18:08:00,
2013-06-25 13:13:00,73.7,67.9,29.85,South,190,0.8,4.8,82,0.00,BKN,,0.53,432.0,WeatherDisplay:10.37,2013-06-25 18:13:00,
2013-06-25 13:18:00,74.0,68.2,29.84,SSW,195,0.0,0.0,82,0.00,BKN,,0.53,425.0,WeatherDisplay:10.37,2013-06-25 18:18:00,
2013-06-25 13:23:00,74.7,68.5,29.84,SSW,195,0.0,0.0,81,0.00,BKN,,0.53,466.0,WeatherDisplay:10.37,2013-06-25 18:23:00,
2013-06-25 13:28:00,76.0,69.0,29.84,SSW,195,0.0,0.0,79,0.00,BKN,,0.53,378.0,WeatherDisplay:10.37,2013-06-25 18:28:00,
2013-06-25 13:33:00,76.5,69.1,29.83,SSW,195,0.0,0.0,78,0.00,BKN,,0.53,506.0,WeatherDisplay:10.37,2013-06-25 18:33:00,
2013-06-25 13:38:00,76.5,68.7,29.83,SSW,195,0.0,1.2,77,0.00,BKN,,0.53,489.0,WeatherDisplay:10.37,2013-06-25 18:38:00,
2013-06-25 13:43:00,77.4,69.2,29.83,SSW,195,0.0,0.0,76,0.00,BKN,,0.53,504.0,WeatherDisplay:10.37,2013-06-25 18:43:00,
2013-06-25 13:48:00,78.3,68.9,29.83,SSW,195,0.0,0.0,73,0.00,BKN,,0.53,459.0,WeatherDisplay:10.37,2013-06-25 18:48:00,
2013-06-25 13:53:00,78.1,68.7,29.83,SSW,195,0.0,0.0,73,0.00,BKN,,0.53,499.0,WeatherDisplay:10.37,2013-06-25 18:53:00,
2013-06-25 13:58:00,79.2,69.8,29.83,SSW,194,0.2,1.2,73,0.00,BKN,,0.53,1102.0,WeatherDisplay:10.37,2013-06-25 18:58:00,
2013-06-25 14:03:00,79.8,70.8,29.83,SSW,192,0.0,0.0,74,0.00,FEW,,0.53,443.0,WeatherDisplay:10.37,2013-06-25 19:03:00,
2013-06-25 14:08:00,79.6,70.6,29.83,ESE,107,0.0,1.2,74,0.00,SCT,,0.53,949.0,WeatherDisplay:10.37,2013-06-25 19:08:00,
2013-06-25 14:13:00,79.4,70.8,29.83,ESE,106,0.0,0.0,75,0.00,SCT,,0.53,533.0,WeatherDisplay:10.37,2013-06-25 19:13:00,
2013-06-25 14:18:00,79.6,70.2,29.82,ESE,106,0.0,1.2,73,0.00,BKN,,0.53,343.0,WeatherDisplay:10.37,2013-06-25 19:18:00,
2013-06-25 14:23:00,80.3,70.9,29.82,ESE,105,0.0,0.0,73,0.00,SCT,,0.53,1046.0,WeatherDisplay:10.37,2013-06-25 19:23:00,
2013-06-25 14:28:00,80.5,71.0,29.82,NE,35,0.0,0.0,73,0.00,SCT,,0.53,554.0,WeatherDisplay:10.37,2013-06-25 19:28:00,
2013-06-25 14:33:00,81.6,72.1,29.81,NE,34,0.0,0.0,73,0.00,SCT,,0.53,1076.0,WeatherDisplay:10.37,2013-06-25 19:33:00,
2013-06-25 14:38:00,82.2,71.4,29.81,East,97,0.0,1.2,70,0.00,SCT,,0.53,366.0,WeatherDisplay:10.37,2013-06-25 19:38:00,
2013-06-25 14:43:00,81.4,71.5,29.81,NE,42,0.0,0.0,72,0.00,BKN,,0.53,464.0,WeatherDisplay:10.37,2013-06-25 19:43:00,
2013-06-25 14:48:00,81.2,70.9,29.81,NE,40,0.0,1.2,71,0.00,BKN,,0.53,445.0,WeatherDisplay:10.37,2013-06-25 19:48:00,
2013-06-25 14:53:00,81.4,71.5,29.81,NE,40,0.0,0.0,72,0.00,BKN,,0.53,512.0,WeatherDisplay:10.37,2013-06-25 19:53:00,
2013-06-25 14:58:00,81.6,71.7,29.81,NE,38,0.0,1.2,72,0.00,BKN,,0.53,476.0,WeatherDisplay:10.37,2013-06-25 19:58:00,
2013-06-25 15:03:00,81.8,72.3,29.81,North,360,0.0,0.0,73,0.00,BKN,,0.53,554.0,WeatherDisplay:10.37,2013-06-25 20:03:00,
2013-06-25 15:08:00,82.6,71.8,29.81,North,360,0.1,1.2,70,0.00,BKN,,0.53,383.0,WeatherDisplay:10.37,2013-06-25 20:08:00,
2013-06-25 15:13:00,83.0,72.2,29.81,North,5,0.0,0.0,70,0.00,BKN,,0.53,459.0,WeatherDisplay:10.37,2013-06-25 20:13:00,
2013-06-25 15:18:00,83.0,72.2,29.81,North,5,0.0,0.0,70,0.00,SCT,,0.53,629.0,WeatherDisplay:10.37,2013-06-25 20:18:00,
2013-06-25 15:23:00,82.8,72.4,29.81,North,5,0.6,1.2,71,0.00,SCT,,0.53,698.0,WeatherDisplay:10.37,2013-06-25 20:23:00,
2013-06-25 15:28:00,82.4,72.5,29.81,North,360,0.1,1.2,72,0.00,SCT,,0.53,366.0,WeatherDisplay:10.37,2013-06-25 20:28:00,
2013-06-25 15:33:00,82.4,72.0,29.81,NNE,19,0.0,1.2,71,0.00,SCT,,0.53,884.0,WeatherDisplay:10.37,2013-06-25 20:33:00,
2013-06-25 15:38:00,81.8,71.9,29.81,ENE,72,0.0,5.8,72,0.00,SCT,,0.53,315.0,WeatherDisplay:10.37,2013-06-25 20:38:00,
2013-06-25 15:43:00,81.8,72.7,29.81,ENE,72,0.0,0.0,74,0.00,BKN,,0.53,338.0,WeatherDisplay:10.37,2013-06-25 20:43:00,
2013-06-25 15:48:00,82.0,72.9,29.81,ENE,68,0.3,3.5,74,0.00,SCT,,0.53,995.0,WeatherDisplay:10.37,2013-06-25 20:48:00,
2013-06-25 15:53:00,83.0,72.6,29.81,NNE,24,0.2,1.2,71,0.00,FEW,,0.53,464.0,WeatherDisplay:10.37,2013-06-25 20:53:00,
2013-06-25 15:58:00,82.0,72.5,29.81,East,96,1.2,4.6,73,0.00,BKN,,0.53,497.0,WeatherDisplay:10.37,2013-06-25 20:58:00,
2013-06-25 16:03:00,81.6,72.5,29.80,East,101,2.8,6.0,74,0.00,BKN,,0.53,547.0,WeatherDisplay:10.37,2013-06-25 21:03:00,
2013-06-25 16:08:00,81.2,72.5,29.80,NNE,22,1.5,3.6,75,0.00,BKN,,0.53,239.0,WeatherDisplay:10.37,2013-06-25 21:08:00,
2013-06-25 16:13:00,80.7,72.4,29.80,NNE,30,0.1,1.2,76,0.00,BKN,,0.53,202.0,WeatherDisplay:10.37,2013-06-25 21:13:00,
2013-06-25 16:18:00,80.3,72.4,29.79,ENE,72,0.1,1.2,77,0.00,BKN,,0.53,206.0,WeatherDisplay:10.37,2013-06-25 21:18:00,
2013-06-25 16:23:00,80.1,72.2,29.79,ENE,69,0.0,1.2,77,0.00,BKN,,0.53,239.0,WeatherDisplay:10.37,2013-06-25 21:23:00,
2013-06-25 16:28:00,79.9,71.7,29.79,NE,44,1.3,4.6,76,0.00,BKN,,0.53,223.0,WeatherDisplay:10.37,2013-06-25 21:28:00,
2013-06-25 16:33:00,79.9,72.0,29.80,NE,43,0.0,1.2,77,0.00,BKN,,0.53,246.0,WeatherDisplay:10.37,2013-06-25 21:33:00,
2013-06-25 16:38:00,80.1,72.2,29.80,NE,43,0.1,1.2,77,0.00,BKN,,0.53,265.0,WeatherDisplay:10.37,2013-06-25 21:38:00,
2013-06-25 16:43:00,80.3,72.4,29.80,NE,43,0.0,0.0,77,0.00,BKN,,0.53,276.0,WeatherDisplay:10.37,2013-06-25 21:43:00,
2013-06-25 16:48:00,80.7,72.8,29.80,NE,43,0.0,0.0,77,0.00,SCT,,0.53,376.0,WeatherDisplay:10.37,2013-06-25 21:48:00,
2013-06-25 16:53:00,81.2,72.9,29.80,ESE,107,0.1,3.5,76,0.00,SCT,,0.53,355.0,WeatherDisplay:10.37,2013-06-25 21:53:00,
2013-06-25 16:58:00,81.6,73.3,29.80,East,98,0.0,0.0,76,0.00,SCT,,0.53,366.0,WeatherDisplay:10.37,2013-06-25 21:58:00,
2013-06-25 17:03:00,82.0,72.9,29.80,East,92,0.0,1.2,74,0.00,SCT,,0.53,288.0,WeatherDisplay:10.37,2013-06-25 22:03:00,
2013-06-25 17:08:00,82.2,73.5,29.80,East,92,0.0,0.0,75,0.00,BKN,,0.53,178.0,WeatherDisplay:10.37,2013-06-25 22:08:00,
2013-06-25 17:13:00,81.8,73.1,29.80,East,85,0.0,0.0,75,0.00,BKN,,0.53,163.0,WeatherDisplay:10.37,2013-06-25 22:13:00,
2013-06-25 17:18:00,81.6,72.9,29.79,East,85,0.0,0.0,75,0.00,BKN,,0.53,114.0,WeatherDisplay:10.37,2013-06-25 22:18:00,
2013-06-25 17:23:00,81.6,73.7,29.79,East,85,0.0,0.0,77,0.00,BKN,,0.53,216.0,WeatherDisplay:10.37,2013-06-25 22:23:00,
2013-06-25 17:28:00,81.2,73.7,29.79,East,80,0.0,0.0,78,0.00,BKN,,0.53,232.0,WeatherDisplay:10.37,2013-06-25 22:28:00,
2013-06-25 17:33:00,81.1,73.6,29.78,East,80,0.0,0.0,78,0.00,BKN,,0.53,299.0,WeatherDisplay:10.37,2013-06-25 22:33:00,
2013-06-25 17:38:00,81.4,73.9,29.78,East,80,0.0,1.2,78,0.00,SCT,,0.53,520.0,WeatherDisplay:10.37,2013-06-25 22:38:00,
2013-06-25 17:43:00,81.8,73.9,29.78,East,80,0.0,0.0,77,0.00,SCT,,0.53,255.0,WeatherDisplay:10.37,2013-06-25 22:43:00,
2013-06-25 17:48:00,82.2,73.9,29.78,East,80,0.0,1.2,76,0.00,SCT,,0.53,418.0,WeatherDisplay:10.37,2013-06-25 22:48:00,
2013-06-25 17:53:00,82.4,73.3,29.78,ENE,66,0.0,0.0,74,0.00,SCT,,0.53,355.0,WeatherDisplay:10.37,2013-06-25 22:53:00,
2013-06-25 17:58:00,82.6,73.9,29.78,ENE,66,0.0,0.0,75,0.00,SCT,,0.53,338.0,WeatherDisplay:10.37,2013-06-25 22:58:00,
2013-06-25 18:03:00,82.6,73.9,29.78,ENE,66,0.0,0.0,75,0.00,SCT,,0.53,297.0,WeatherDisplay:10.37,2013-06-25 23:03:00,
2013-06-25 18:08:00,83.0,73.9,29.78,ENE,66,0.0,0.0,74,0.00,SCT,,0.53,308.0,WeatherDisplay:10.37,2013-06-25 23:08:00,
2013-06-25 18:13:00,83.0,73.4,29.78,ENE,68,0.0,0.0,73,0.00,SCT,,0.53,250.0,WeatherDisplay:10.37,2013-06-25 23:13:00,
2013-06-25 18:18:00,82.6,72.2,29.78,ESE,119,0.0,0.0,71,0.00,SCT,,0.53,76.0,WeatherDisplay:10.37,2013-06-25 23:18:00,
2013-06-25 18:23:00,82.2,71.9,29.78,SE,131,0.0,1.2,71,0.00,SCT,,0.53,63.0,WeatherDisplay:10.37,2013-06-25 23:23:00,
2013-06-25 18:28:00,81.8,71.9,29.78,SE,138,0.0,0.0,72,0.00,SCT,,0.53,76.0,WeatherDisplay:10.37,2013-06-25 23:28:00,
2013-06-25 18:33:00,81.6,72.5,29.78,SE,138,0.0,0.0,74,0.00,SCT,,0.53,149.0,WeatherDisplay:10.37,2013-06-25 23:33:00,
2013-06-25 18:38:00,81.4,72.3,29.78,SE,138,0.1,0.0,74,0.00,SCT,,0.53,355.0,WeatherDisplay:10.37,2013-06-25 23:38:00,
2013-06-25 18:43:00,81.6,72.5,29.78,SE,138,0.0,0.0,74,0.00,SCT,,0.53,188.0,WeatherDisplay:10.37,2013-06-25 23:43:00,
2013-06-25 18:48:00,81.6,72.5,29.78,SE,138,0.0,0.0,74,0.00,SCT,,0.53,149.0,WeatherDisplay:10.37,2013-06-25 23:48:00,
2013-06-25 18:53:00,81.6,72.5,29.78,SE,146,0.1,1.2,74,0.00,SCT,,0.53,127.0,WeatherDisplay:10.37,2013-06-25 23:53:00,
2013-06-25 18:58:00,81.2,72.5,29.78,SSE,159,0.0,1.2,75,0.00,SCT,,0.53,230.0,WeatherDisplay:10.37,2013-06-25 23:58:00,
2013-06-25 19:03:00,81.2,72.5,29.78,SW,215,1.2,5.8,75,0.00,SCT,,0.53,218.0,WeatherDisplay:10.37,2013-06-26 00:03:00,
2013-06-25 19:08:00,81.1,72.4,29.78,SSW,203,0.0,0.0,75,0.00,SCT,,0.53,209.0,WeatherDisplay:10.37,2013-06-26 00:08:00,
2013-06-25 19:13:00,81.1,72.4,29.78,South,190,0.0,0.0,75,0.00,SCT,,0.53,211.0,WeatherDisplay:10.37,2013-06-26 00:13:00,
2013-06-25 19:18:00,80.9,72.2,29.78,South,178,1.4,5.8,75,0.00,SCT,,0.53,193.0,WeatherDisplay:10.37,2013-06-26 00:18:00,
2013-06-25 19:23:00,80.9,72.6,29.78,South,176,0.0,0.0,76,0.00,SCT,,0.53,107.0,WeatherDisplay:10.37,2013-06-26 00:23:00,
2013-06-25 19:28:00,80.9,72.6,29.78,South,176,0.0,0.0,76,0.00,SCT,,0.53,84.0,WeatherDisplay:10.37,2013-06-26 00:28:00,
2013-06-25 19:33:00,81.1,72.8,29.77,South,176,0.0,0.0,76,0.00,SCT,,0.53,72.0,WeatherDisplay:10.37,2013-06-26 00:33:00,
2013-06-25 19:38:00,81.1,72.8,29.77,South,176,0.0,0.0,76,0.00,SCT,,0.53,62.0,WeatherDisplay:10.37,2013-06-26 00:38:00,
2013-06-25 19:43:00,80.9,72.6,29.77,South,176,0.0,0.0,76,0.00,SCT,,0.53,53.0,WeatherDisplay:10.37,2013-06-26 00:43:00,
2013-06-25 19:48:00,80.7,72.8,29.77,South,176,0.0,0.0,77,0.00,SCT,,0.53,51.0,WeatherDisplay:10.37,2013-06-26 00:48:00,
2013-06-25 19:53:00,80.7,73.2,29.77,South,176,0.0,0.0,78,0.00,SCT,,0.53,53.0,WeatherDisplay:10.37,2013-06-26 00:53:00,
2013-06-25 19:58:00,80.5,73.0,29.77,South,176,0.0,0.0,78,0.00,SCT,,0.53,46.0,WeatherDisplay:10.37,2013-06-26 00:58:00,
2013-06-25 20:03:00,80.3,73.2,29.77,South,176,0.0,0.0,79,0.00,SCT,,0.53,37.0,WeatherDisplay:10.37,2013-06-26 01:03:00,
2013-06-25 20:08:00,80.1,73.0,29.77,South,176,0.0,0.0,79,0.00,SCT,,0.53,28.0,WeatherDisplay:10.37,2013-06-26 01:08:00,
2013-06-25 20:13:00,80.1,73.0,29.77,South,176,0.0,0.0,79,0.00,SCT,,0.53,21.0,WeatherDisplay:10.37,2013-06-26 01:13:00,
2013-06-25 20:18:00,79.9,73.2,29.77,South,176,0.0,0.0,80,0.00,SCT,,0.53,16.0,WeatherDisplay:10.37,2013-06-26 01:18:00,
2013-06-25 20:23:00,79.8,73.1,29.77,South,176,0.0,0.0,80,0.00,SCT,,0.53,12.0,WeatherDisplay:10.37,2013-06-26 01:23:00,
2013-06-25 20:28:00,79.8,73.1,29.77,South,176,0.0,0.0,80,0.00,SCT,,0.53,9.0,WeatherDisplay:10.37,2013-06-26 01:28:00,
2013-06-25 20:33:00,79.4,73.1,29.77,South,176,0.0,0.0,81,0.00,SCT,,0.53,7.0,WeatherDisplay:10.37,2013-06-26 01:33:00,
2013-06-25 20:38:00,79.0,73.0,29.77,South,176,0.0,0.0,82,0.00,SCT,,0.53,0.0,WeatherDisplay:10.37,2013-06-26 01:38:00,
2013-06-25 20:43:00,78.8,72.8,29.77,South,176,0.0,0.0,82,0.00,SCT,,0.53,0.0,WeatherDisplay:10.37,2013-06-26 01:43:00,
2013-06-25 20:48:00,78.6,73.0,29.76,South,176,0.0,0.0,83,0.00,SCT,,0.53,0.0,WeatherDisplay:10.37,2013-06-26 01:48:00,
2013-06-25 20:53:00,78.5,72.9,29.76,South,176,0.0,0.0,83,0.00,SCT,,0.53,0.0,WeatherDisplay:10.37,2013-06-26 01:53:00,
2013-06-25 20:58:00,78.3,73.1,29.76,South,176,0.0,0.0,84,0.00,SCT,,0.53,0.0,WeatherDisplay:10.37,2013-06-26 01:58:00,
2013-06-25 21:03:00,78.1,72.9,29.76,South,176,0.0,0.0,84,0.00,SCT,,0.53,0.0,WeatherDisplay:10.37,2013-06-26 02:03:00,
2013-06-25 21:08:00,77.9,73.0,29.76,South,176,0.0,0.0,85,0.00,SCT,,0.53,0.0,WeatherDisplay:10.37,2013-06-26 02:08:00,
2013-06-25 21:13:00,77.7,72.8,29.76,South,176,0.0,0.0,85,0.00,SCT,,0.53,0.0,WeatherDisplay:10.37,2013-06-26 02:13:00,
2013-06-25 21:18:00,77.6,73.1,29.77,South,176,0.0,0.0,86,0.00,SCT,,0.53,0.0,WeatherDisplay:10.37,2013-06-26 02:18:00,
2013-06-25 21:23:00,77.4,72.9,29.77,South,176,0.0,0.0,86,0.00,SCT,,0.53,0.0,WeatherDisplay:10.37,2013-06-26 02:23:00,
2013-06-25 21:28:00,77.2,72.7,29.77,South,176,0.0,0.0,86,0.00,SCT,,0.53,0.0,WeatherDisplay:10.37,2013-06-26 02:28:00,
2013-06-25 21:33:00,76.8,72.6,29.77,South,176,0.0,0.0,87,0.00,SCT,,0.53,0.0,WeatherDisplay:10.37,2013-06-26 02:33:00,
2013-06-25 21:38:00,76.7,72.5,29.77,South,176,0.0,0.0,87,0.00,SCT,,0.53,0.0,WeatherDisplay:10.37,2013-06-26 02:38:00,
2013-06-25 21:43:00,76.7,72.9,29.77,South,176,0.0,0.0,88,0.00,SCT,,0.53,0.0,WeatherDisplay:10.37,2013-06-26 02:43:00,
2013-06-25 21:48:00,76.5,72.7,29.78,South,176,0.0,0.0,88,0.00,SCT,,0.53,0.0,WeatherDisplay:10.37,2013-06-26 02:48:00,
2013-06-25 21:53:00,76.3,72.8,29.78,South,176,0.0,0.0,89,0.00,SCT,,0.53,0.0,WeatherDisplay:10.37,2013-06-26 02:53:00,
2013-06-25 21:58:00,76.1,72.6,29.78,South,176,0.0,0.0,89,0.00,SCT,,0.53,0.0,WeatherDisplay:10.37,2013-06-26 02:58:00,
2013-06-25 22:03:00,76.0,72.9,29.78,South,176,0.0,0.0,90,0.00,SCT,,0.53,0.0,WeatherDisplay:10.37,2013-06-26 03:03:00,
2013-06-25 22:08:00,75.8,72.7,29.78,South,176,0.0,0.0,90,0.00,SCT,,0.53,0.0,WeatherDisplay:10.37,2013-06-26 03:08:00,
2013-06-25 22:13:00,75.6,72.8,29.78,South,176,0.0,0.0,91,0.00,SCT,,0.53,0.0,WeatherDisplay:10.37,2013-06-26 03:13:00,
2013-06-25 22:18:00,75.4,72.6,29.77,South,176,0.0,0.0,91,0.00,SCT,,0.53,0.0,WeatherDisplay:10.37,2013-06-26 03:18:00,
2013-06-25 22:23:00,75.3,72.5,29.77,South,176,0.0,0.0,91,0.00,SCT,,0.53,0.0,WeatherDisplay:10.37,2013-06-26 03:23:00,
2013-06-25 22:28:00,75.1,72.3,29.77,South,176,0.0,0.0,91,0.00,SCT,,0.53,0.0,WeatherDisplay:10.37,2013-06-26 03:28:00,
2013-06-25 22:33:00,75.1,72.3,29.76,South,176,0.0,0.0,91,0.00,SCT,,0.53,0.0,WeatherDisplay:10.37,2013-06-26 03:33:00,
2013-06-25 22:38:00,74.9,72.4,29.76,South,176,0.0,0.0,92,0.00,SCT,,0.53,0.0,WeatherDisplay:10.37,2013-06-26 03:38:00,
2013-06-25 22:43:00,74.7,72.2,29.76,South,176,0.0,0.0,92,0.00,SCT,,0.53,0.0,WeatherDisplay:10.37,2013-06-26 03:43:00,
2013-06-25 22:48:00,74.6,72.1,29.76,South,176,0.0,0.0,92,0.00,SCT,,0.53,0.0,WeatherDisplay:10.37,2013-06-26 03:48:00,
2013-06-25 22:53:00,74.4,72.2,29.76,South,176,0.0,0.0,93,0.00,SCT,,0.53,0.0,WeatherDisplay:10.37,2013-06-26 03:53:00,
2013-06-25 22:58:00,74.2,72.0,29.76,South,176,0.0,0.0,93,0.00,SCT,,0.53,0.0,WeatherDisplay:10.37,2013-06-26 03:58:00,
2013-06-25 23:01:00,74.2,72.0,29.76,South,176,0.0,0.0,93,0.00,SCT,,0.53,0.0,WeatherDisplay:10.37,2013-06-26 04:01:00,
2013-06-25 23:02:00,74.2,72.0,29.76,South,176,0.0,0.0,93,0.00,SCT,,0.53,0.0,WeatherDisplay:10.37,2013-06-26 04:02:00,
2013-06-25 23:06:00,74.0,72.2,29.76,South,176,0.0,0.0,94,0.00,SCT,,0.53,0.0,WeatherDisplay:10.37,2013-06-26 04:06:00,
2013-06-25 23:11:00,74.0,72.2,29.76,South,176,0.0,0.0,94,0.00,SCT,,0.53,0.0,WeatherDisplay:10.37,2013-06-26 04:11:00,
2013-06-25 23:16:00,73.9,72.1,29.76,South,176,0.0,0.0,94,0.00,SCT,,0.53,0.0,WeatherDisplay:10.37,2013-06-26 04:16:00,
2013-06-25 23:21:00,73.9,72.1,29.76,South,176,0.0,0.0,94,0.00,SCT,,0.53,0.0,WeatherDisplay:10.37,2013-06-26 04:21:00,
2013-06-25 23:26:00,73.7,71.9,29.76,South,176,0.0,0.0,94,0.00,SCT,,0.53,0.0,WeatherDisplay:10.37,2013-06-26 04:26:00,
2013-06-25 23:31:00,73.7,72.2,29.76,South,176,0.0,0.0,95,0.00,SCT,,0.53,0.0,WeatherDisplay:10.37,2013-06-26 04:31:00,
2013-06-25 23:36:00,73.5,72.0,29.76,South,176,0.0,0.0,95,0.00,SCT,,0.53,0.0,WeatherDisplay:10.37,2013-06-26 04:36:00,
2013-06-25 23:41:00,73.3,71.8,29.76,South,176,0.0,0.0,95,0.00,SCT,,0.53,0.0,WeatherDisplay:10.37,2013-06-26 04:41:00,
2013-06-25 23:46:00,73.3,71.8,29.76,South,176,0.0,0.0,95,0.00,SCT,,0.53,0.0,WeatherDisplay:10.37,2013-06-26 04:46:00,
2013-06-25 23:51:00,73.2,71.7,29.76,South,176,0.0,0.0,95,0.00,SCT,,0.53,0.0,WeatherDisplay:10.37,2013-06-26 04:51:00,
2013-06-25 23:56:00,73.2,71.7,29.76,South,176,0.0,0.0,95,0.00,SCT,,0.53,0.0,WeatherDisplay:10.37,2013-06-26 04:56:00,